Time;durP1;ratioP1;P1;durP2;ratioP2;P2;SDS_P1;SDS_P2;PMS_P1;PMS_P2;Temp;Humidity;BMP_temperature;BMP_pressure;BME280_temperature;BME280_humidity;BME280_pressure;Samples;Min_cycle;Max_cycle;Signal;HPM_P1;HPM_P2
2022/06/09 00:01:32;;;;;;;2.35;1.10;;;13.60;99.90;;;;;;5143626;28;20046;-74
2022/06/09 00:04:22;;;;;;;2.67;1.35;;;13.60;99.90;;;;;;5135413;28;20030;-72
2022/06/09 00:07:05;;;;;;;4.13;1.20;;;13.50;99.90;;;;;;5135757;28;20039;-75
2022/06/09 00:09:44;;;;;;;2.80;1.40;;;13.60;99.90;;;;;;5134346;28;20046;-72
2022/06/09 00:12:16;;;;;;;2.67;1.17;;;13.50;99.90;;;;;;5136578;28;20061;-74
2022/06/09 00:14:49;;;;;;;2.03;1.27;;;13.60;99.90;;;;;;5136476;28;20054;-74
2022/06/09 00:17:23;;;;;;;2.10;1.33;;;13.50;99.90;;;;;;5144917;28;20057;-74
2022/06/09 00:19:56;;;;;;;2.08;1.55;;;13.60;99.90;;;;;;5136242;28;20049;-74
2022/06/09 00:22:28;;;;;;;2.40;1.38;;;13.60;99.90;;;;;;5132382;28;20050;-74
2022/06/09 00:25:00;;;;;;;3.05;1.10;;;13.60;99.90;;;;;;5132805;28;20442;-75
2022/06/09 00:27:34;;;;;;;2.00;1.30;;;13.60;99.90;;;;;;5134811;28;20101;-74
2022/06/09 00:30:09;;;;;;;4.57;1.50;;;13.60;99.90;;;;;;5133733;28;20106;-74
2022/06/09 00:32:41;;;;;;;2.25;1.58;;;13.60;99.90;;;;;;5131677;28;20047;-74
2022/06/09 00:35:14;;;;;;;4.07;1.92;;;13.70;99.90;;;;;;5136589;28;20498;-75
2022/06/09 00:37:46;;;;;;;2.07;1.53;;;13.70;99.90;;;;;;5141746;28;20767;-75
2022/06/09 00:40:19;;;;;;;2.85;1.30;;;13.70;99.90;;;;;;5133944;28;20043;-75
2022/06/09 00:42:52;;;;;;;2.80;1.63;;;13.70;99.90;;;;;;5136279;28;20046;-75
2022/06/09 00:45:33;;;;;;;6.30;1.63;;;13.70;99.90;;;;;;5136620;28;20378;-75
2022/06/09 00:48:20;;;;;;;5.53;1.90;;;13.70;99.90;;;;;;5137291;28;20050;-73
2022/06/09 00:51:20;;;;;;;3.50;1.50;;;13.70;99.90;;;;;;5134490;28;20050;-75
2022/06/09 00:53:59;;;;;;;2.30;1.55;;;13.70;99.90;;;;;;5143665;28;20163;-74
2022/06/09 00:56:35;;;;;;;5.47;1.92;;;13.70;99.90;;;;;;5127791;28;20054;-75
2022/06/09 00:59:13;;;;;;;6.40;1.98;;;13.70;99.90;;;;;;5131687;28;20453;-75
2022/06/09 01:01:45;;;;;;;2.70;1.77;;;13.70;99.90;;;;;;5138821;28;20057;-75
2022/06/09 01:04:20;;;;;;;4.40;2.13;;;13.70;99.90;;;;;;5139759;28;20043;-72
2022/06/09 01:06:56;;;;;;;7.85;2.92;;;13.70;99.90;;;;;;5126609;28;20490;-75
2022/06/09 01:09:30;;;;;;;3.50;1.80;;;13.70;99.90;;;;;;5153244;28;20089;-75
2022/06/09 01:12:28;;;;;;;4.03;1.92;;;13.70;99.90;;;;;;5138509;28;20450;-76
2022/06/09 01:15:13;;;;;;;2.78;2.08;;;13.80;99.90;;;;;;5140663;28;20061;-74
2022/06/09 01:18:13;;;;;;;5.47;2.13;;;13.70;99.90;;;;;;5140508;28;20438;-74
2022/06/09 01:21:02;;;;;;;3.92;2.28;;;13.80;99.90;;;;;;5143535;28;20516;-71
2022/06/09 01:24:14;;;;;;;3.05;2.17;;;13.80;99.90;;;;;;5144665;28;20058;-75
2022/06/09 01:26:56;;;;;;;3.25;2.45;;;13.80;99.90;;;;;;5134786;28;20069;-75
2022/06/09 01:29:37;;;;;;;4.38;2.40;;;13.80;99.90;;;;;;5127277;28;20053;-75
2022/06/09 01:32:21;;;;;;;3.70;2.47;;;13.80;99.90;;;;;;5132762;28;20148;-73
2022/06/09 01:35:47;;;;;;;3.85;2.92;;;13.70;99.90;;;;;;5142753;28;20609;-75
2022/06/09 01:38:20;;;;;;;5.55;3.00;;;13.80;99.90;;;;;;5173698;28;20096;-74
2022/06/09 01:40:52;;;;;;;4.55;2.65;;;13.70;99.90;;;;;;5170188;28;20049;-72
2022/06/09 01:43:24;;;;;;;6.63;3.00;;;13.70;99.90;;;;;;5152224;28;20501;-75
2022/06/09 01:46:01;;;;;;;3.92;2.60;;;13.70;99.90;;;;;;5139898;28;20042;-74
2022/06/09 01:48:34;;;;;;;5.18;2.85;;;13.70;99.90;;;;;;5142992;28;20054;-75
2022/06/09 01:51:11;;;;;;;4.37;2.17;;;13.70;99.90;;;;;;5137594;28;20046;-75
2022/06/09 01:54:01;;;;;;;7.40;4.28;;;13.80;99.90;;;;;;5133977;28;20066;-75
2022/06/09 01:56:39;;;;;;;8.48;3.10;;;13.80;99.90;;;;;;5133875;28;20051;-73
2022/06/09 01:59:21;;;;;;;8.38;3.47;;;13.80;99.90;;;;;;5133986;28;20049;-75
2022/06/09 02:02:09;;;;;;;12.80;3.60;;;13.90;99.90;;;;;;5126434;28;20503;-74
2022/06/09 02:04:52;;;;;;;8.18;3.63;;;13.80;99.90;;;;;;5131619;28;20101;-74
2022/06/09 02:07:29;;;;;;;10.27;3.63;;;13.80;99.90;;;;;;5134119;28;20054;-74
2022/06/09 02:10:15;;;;;;;7.75;3.55;;;13.80;99.90;;;;;;5146463;28;20409;-74
2022/06/09 02:12:50;;;;;;;6.75;4.05;;;13.80;99.90;;;;;;5143954;28;20049;-74
2022/06/09 02:15:30;;;;;;;4.75;2.70;;;13.90;99.90;;;;;;5136037;28;20061;-75
2022/06/09 02:18:13;;;;;;;8.32;4.18;;;13.90;99.90;;;;;;5143098;28;20481;-74
2022/06/09 02:20:54;;;;;;;5.57;3.50;;;13.90;99.90;;;;;;5138820;28;20605;-72
2022/06/09 02:23:26;;;;;;;4.75;2.58;;;14.00;99.90;;;;;;5134131;28;20062;-71
2022/06/09 02:25:59;;;;;;;7.68;3.13;;;14.00;99.90;;;;;;5128550;28;20066;-75
2022/06/09 02:28:32;;;;;;;5.38;3.60;;;14.00;99.90;;;;;;5141989;28;20043;-74
2022/06/09 02:31:05;;;;;;;6.97;4.35;;;14.00;99.90;;;;;;5131910;28;20059;-74
2022/06/09 02:33:37;;;;;;;9.55;3.92;;;13.90;99.90;;;;;;5132319;28;20047;-74
2022/06/09 02:36:10;;;;;;;5.75;3.92;;;13.80;99.90;;;;;;5133467;28;20054;-74
2022/06/09 02:38:42;;;;;;;5.80;3.30;;;13.90;99.90;;;;;;5132008;28;20042;-74
2022/06/09 02:41:15;;;;;;;5.20;3.13;;;13.80;99.90;;;;;;5132311;28;20047;-73
2022/06/09 02:43:48;;;;;;;5.15;4.13;;;13.80;99.90;;;;;;5130652;28;20055;-72
2022/06/09 02:46:20;;;;;;;5.57;3.47;;;13.80;99.90;;;;;;5132752;28;20403;-74
2022/06/09 02:48:53;;;;;;;6.40;3.70;;;13.80;99.90;;;;;;5132190;28;20054;-74
2022/06/09 02:51:30;;;;;;;11.63;4.15;;;13.80;99.90;;;;;;5142418;28;20640;-74
2022/06/09 02:54:06;;;;;;;5.57;3.53;;;13.80;99.90;;;;;;5133476;28;20074;-72
2022/06/09 02:56:43;;;;;;;6.95;4.30;;;13.80;99.90;;;;;;5139576;28;20065;-72
2022/06/09 02:59:15;;;;;;;5.57;3.33;;;13.90;99.90;;;;;;5133458;28;20047;-77
2022/06/09 03:01:48;;;;;;;7.10;3.17;;;13.80;99.90;;;;;;5141647;28;20069;-75
2022/06/09 03:04:20;;;;;;;6.65;3.42;;;13.80;99.90;;;;;;5135573;28;20055;-73
2022/06/09 03:06:53;;;;;;;9.38;3.42;;;13.80;99.90;;;;;;5131845;28;20490;-74
2022/06/09 03:09:25;;;;;;;6.28;3.00;;;13.90;99.90;;;;;;5138487;28;20122;-75
2022/06/09 03:11:58;;;;;;;7.72;3.50;;;13.80;99.90;;;;;;5131681;28;20054;-74
2022/06/09 03:14:30;;;;;;;5.80;3.03;;;13.90;99.90;;;;;;5130915;28;20070;-74
2022/06/09 03:17:03;;;;;;;5.68;3.42;;;13.90;99.90;;;;;;5130532;28;20054;-73
2022/06/09 03:19:37;;;;;;;5.45;3.53;;;13.80;99.90;;;;;;5131353;28;20046;-74
2022/06/09 03:22:10;;;;;;;5.68;3.92;;;13.80;99.90;;;;;;5134165;28;20057;-72
2022/06/09 03:24:42;;;;;;;5.78;3.25;;;13.80;99.90;;;;;;5131033;28;20047;-75
2022/06/09 03:27:14;;;;;;;8.23;3.92;;;13.80;99.90;;;;;;5137105;28;20590;-75
2022/06/09 03:29:47;;;;;;;6.63;3.75;;;13.80;99.90;;;;;;5130509;28;20057;-75
2022/06/09 03:32:21;;;;;;;6.45;3.20;;;13.80;99.90;;;;;;5141080;28;20121;-75
2022/06/09 03:34:55;;;;;;;6.43;3.53;;;13.80;99.90;;;;;;5131543;28;20524;-74
2022/06/09 03:37:27;;;;;;;7.25;3.90;;;13.80;99.90;;;;;;5130420;28;20050;-75
2022/06/09 03:40:00;;;;;;;5.40;3.70;;;13.80;99.90;;;;;;5132250;28;20050;-74
2022/06/09 03:42:32;;;;;;;6.27;3.40;;;13.90;99.90;;;;;;5109527;28;20069;-75
2022/06/09 03:45:05;;;;;;;5.25;4.18;;;13.90;99.90;;;;;;5131701;28;20051;-74
2022/06/09 03:47:38;;;;;;;4.28;3.08;;;13.90;99.90;;;;;;5126297;28;20447;-75
2022/06/09 03:50:17;;;;;;;7.35;3.28;;;13.90;99.90;;;;;;5124622;28;20050;-73
2022/06/09 03:52:49;;;;;;;9.23;4.68;;;13.90;99.90;;;;;;5124892;28;20046;-72
2022/06/09 03:55:22;;;;;;;5.05;3.78;;;13.90;99.90;;;;;;5136386;28;20262;-74
2022/06/09 03:57:55;;;;;;;7.27;3.70;;;13.90;99.90;;;;;;5136092;28;20055;-74
2022/06/09 04:00:30;;;;;;;5.55;2.75;;;13.90;99.90;;;;;;5131019;28;20047;-75
2022/06/09 04:03:03;;;;;;;6.80;3.00;;;13.90;99.90;;;;;;5132799;28;20051;-75
2022/06/09 04:05:37;;;;;;;11.02;3.88;;;14.00;99.90;;;;;;5140828;28;20397;-75
2022/06/09 04:08:11;;;;;;;8.48;3.28;;;13.90;99.90;;;;;;5132614;28;20398;-74
2022/06/09 04:10:43;;;;;;;5.93;3.28;;;13.90;99.90;;;;;;5139912;28;20069;-75
2022/06/09 04:13:16;;;;;;;5.28;2.95;;;14.00;99.90;;;;;;5133955;28;20090;-74
2022/06/09 04:15:48;;;;;;;7.60;3.22;;;14.00;99.90;;;;;;5131358;28;20434;-75
2022/06/09 04:18:21;;;;;;;7.70;3.25;;;14.00;99.90;;;;;;5130730;28;20061;-74
2022/06/09 04:20:54;;;;;;;10.90;4.70;;;14.00;99.90;;;;;;5129690;28;20043;-75
2022/06/09 04:23:27;;;;;;;6.90;3.60;;;14.00;99.90;;;;;;5130254;28;20059;-72
2022/06/09 04:25:59;;;;;;;5.10;2.97;;;14.00;99.90;;;;;;5146736;28;20043;-72
2022/06/09 04:28:31;;;;;;;4.70;3.03;;;14.00;99.90;;;;;;5131815;28;20046;-75
2022/06/09 04:31:04;;;;;;;7.38;3.42;;;14.10;99.90;;;;;;5143836;28;20069;-75
2022/06/09 04:33:37;;;;;;;5.63;4.05;;;14.10;99.90;;;;;;5132739;28;20043;-75
2022/06/09 04:36:11;;;;;;;5.13;3.42;;;14.00;99.90;;;;;;5132175;28;20058;-74
2022/06/09 04:38:44;;;;;;;7.13;2.92;;;14.10;99.90;;;;;;5133009;28;20058;-75
2022/06/09 04:41:17;;;;;;;5.68;3.47;;;14.00;99.90;;;;;;5132665;28;20609;-75
2022/06/09 04:43:49;;;;;;;6.65;3.45;;;14.00;99.90;;;;;;5142834;28;20053;-75
2022/06/09 04:46:23;;;;;;;5.68;3.33;;;14.00;99.90;;;;;;5131458;28;20499;-74
2022/06/09 04:48:56;;;;;;;7.13;3.20;;;14.10;99.90;;;;;;5130781;28;20058;-73
2022/06/09 04:51:29;;;;;;;4.00;2.65;;;14.10;99.90;;;;;;5133413;28;20522;-75
2022/06/09 04:54:02;;;;;;;7.85;3.00;;;14.10;99.90;;;;;;5131625;28;20352;-75
2022/06/09 04:56:34;;;;;;;4.25;2.83;;;14.10;99.90;;;;;;5136534;28;20297;-75
2022/06/09 04:59:07;;;;;;;5.50;2.70;;;14.10;99.90;;;;;;5134781;28;20054;-75
2022/06/09 05:01:39;;;;;;;5.13;2.35;;;14.20;99.90;;;;;;5134540;28;20050;-75
2022/06/09 05:04:12;;;;;;;5.75;2.97;;;14.20;99.90;;;;;;5135557;28;20530;-75
2022/06/09 05:06:44;;;;;;;5.35;2.65;;;14.20;99.90;;;;;;5145389;28;20498;-74
2022/06/09 05:09:17;;;;;;;5.38;2.60;;;14.30;99.90;;;;;;5137490;28;20062;-74
2022/06/09 05:11:49;;;;;;;7.97;3.05;;;14.30;99.90;;;;;;5125203;28;20046;-73
2022/06/09 05:14:22;;;;;;;6.22;3.13;;;14.30;99.90;;;;;;5136040;28;20047;-74
2022/06/09 05:16:54;;;;;;;4.18;2.70;;;14.30;99.90;;;;;;5134247;28;20065;-72
2022/06/09 05:19:27;;;;;;;2.78;2.42;;;14.30;99.90;;;;;;5136851;28;20070;-75
2022/06/09 05:21:59;;;;;;;4.38;2.60;;;14.30;99.90;;;;;;5136839;28;20654;-74
2022/06/09 05:24:32;;;;;;;4.32;2.50;;;14.20;99.90;;;;;;5136067;28;20529;-74
2022/06/09 05:27:04;;;;;;;5.38;2.55;;;14.20;99.90;;;;;;5130215;28;20042;-74
2022/06/09 05:29:37;;;;;;;5.85;2.50;;;14.20;99.90;;;;;;5135033;28;20065;-72
2022/06/09 05:32:09;;;;;;;4.40;2.42;;;14.20;99.90;;;;;;5136693;28;20047;-74
2022/06/09 05:34:42;;;;;;;5.35;2.50;;;14.20;99.90;;;;;;5136891;28;20514;-74
2022/06/09 05:37:14;;;;;;;3.78;3.30;;;14.10;99.90;;;;;;5136434;28;20499;-74
2022/06/09 05:45:29;;;;;;;5.97;2.50;;;14.30;99.90;;;;;;5133514;28;20418;-73
2022/06/09 05:48:01;;;;;;;3.88;2.50;;;14.30;99.90;;;;;;5125419;28;20049;-73
2022/06/09 05:50:35;;;;;;;3.17;2.47;;;14.30;99.90;;;;;;5168177;28;20692;-75
2022/06/09 05:53:08;;;;;;;;;;;14.30;99.90;;;;;;5142264;28;20066;-74
2022/06/09 05:55:41;;;;;;;4.85;2.20;;;14.30;99.90;;;;;;5136766;28;19926;-72
2022/06/09 05:58:13;;;;;;;6.90;2.55;;;14.30;99.90;;;;;;5146149;28;20074;-74
2022/06/09 06:00:46;;;;;;;4.47;2.72;;;14.30;99.90;;;;;;5139770;28;20050;-74
2022/06/09 06:03:19;;;;;;;8.95;2.78;;;14.20;99.90;;;;;;5138009;28;20498;-74
2022/06/09 06:08:42;;;;;;;3.90;2.40;;;14.30;99.90;;;;;;5135558;28;20054;-74
2022/06/09 06:11:15;;;;;;;2.97;2.17;;;14.40;99.90;;;;;;5134637;28;20074;-75
2022/06/09 06:13:47;;;;;;;3.72;2.80;;;14.40;99.90;;;;;;5139957;28;20058;-74
2022/06/09 06:16:20;;;;;;;6.15;2.95;;;14.40;99.90;;;;;;5137270;28;20442;-74
2022/06/09 06:19:12;;;;;;;8.80;3.33;;;14.30;99.90;;;;;;5119441;28;20070;-73
2022/06/09 06:21:46;;;;;;;5.28;3.13;;;14.40;99.90;;;;;;5136786;28;20517;-74
2022/06/09 06:24:21;;;;;;;4.13;3.00;;;14.30;99.90;;;;;;5136294;28;20073;-74
2022/06/09 06:26:54;;;;;;;6.28;3.10;;;14.30;99.90;;;;;;5133724;28;20490;-74
2022/06/09 06:29:28;;;;;;;7.07;3.63;;;14.30;99.90;;;;;;5157198;28;20051;-73
2022/06/09 06:32:00;;;;;;;6.57;3.30;;;14.40;99.90;;;;;;5136602;28;20069;-73
2022/06/09 06:34:33;;;;;;;5.95;3.28;;;14.30;99.90;;;;;;5141838;28;20054;-74
2022/06/09 06:37:05;;;;;;;6.20;2.25;;;14.20;99.90;;;;;;5137134;28;20054;-73
2022/06/09 06:39:37;;;;;;;7.07;2.15;;;14.10;99.90;;;;;;5138627;28;20061;-73
2022/06/09 06:42:10;;;;;;;5.45;2.00;;;14.10;99.90;;;;;;5139062;28;20046;-72
2022/06/09 06:44:49;;;;;;;3.20;2.17;;;14.00;99.90;;;;;;5139025;28;20046;-73
2022/06/09 06:47:22;;;;;;;3.50;1.88;;;14.00;99.90;;;;;;5135866;28;20071;-75
2022/06/09 06:49:55;;;;;;;4.97;2.20;;;14.10;99.90;;;;;;5138608;28;20446;-75
2022/06/09 06:52:27;;;;;;;4.07;2.72;;;14.00;99.90;;;;;;5146190;28;20461;-74
2022/06/09 06:55:00;;;;;;;4.55;2.70;;;14.10;99.90;;;;;;5129041;28;20046;-72
2022/06/09 06:57:33;;;;;;;5.38;2.85;;;14.10;99.90;;;;;;5136191;28;20495;-73
2022/06/09 07:00:10;;;;;;;7.10;2.27;;;14.20;99.90;;;;;;5145933;28;20081;-74
2022/06/09 07:02:42;;;;;;;4.30;2.40;;;14.20;99.90;;;;;;5134422;28;20313;-74
2022/06/09 07:05:34;;;;;;;4.55;3.20;;;14.20;99.90;;;;;;5139269;28;20446;-73
2022/06/09 07:08:08;;;;;;;8.50;2.85;;;14.30;99.90;;;;;;5135749;28;20514;-73
2022/06/09 07:10:40;;;;;;;7.03;3.22;;;14.40;99.90;;;;;;5137504;28;20047;-73
2022/06/09 07:13:13;;;;;;;7.63;2.97;;;14.50;99.90;;;;;;5143275;28;20053;-74
2022/06/09 07:15:45;;;;;;;4.10;2.73;;;14.50;99.90;;;;;;5138577;28;20043;-72
2022/06/09 07:18:18;;;;;;;3.20;2.28;;;14.70;99.90;;;;;;5137835;28;20200;-74
2022/06/09 07:20:50;;;;;;;4.13;1.52;;;14.80;99.90;;;;;;5133438;28;20051;-73
2022/06/09 07:23:24;;;;;;;3.15;1.35;;;14.80;99.90;;;;;;5136020;28;20046;-73
2022/06/09 07:25:58;;;;;;;3.63;2.00;;;14.80;99.90;;;;;;5136778;28;20050;-74
2022/06/09 07:28:31;;;;;;;;;;;14.80;99.90;;;;;;5133605;28;20055;-71
2022/06/09 07:31:05;;;;;;;4.00;2.00;;;14.90;99.90;;;;;;5137635;28;19922;-73
2022/06/09 07:33:40;;;;;;;3.42;2.10;;;15.00;99.90;;;;;;5145665;28;20065;-74
2022/06/09 07:36:19;;;;;;;4.88;1.80;;;15.00;99.90;;;;;;5123931;28;20070;-73
2022/06/09 07:38:52;;;;;;;3.97;1.63;;;15.20;99.90;;;;;;5135544;28;20051;-73
2022/06/09 07:41:24;;;;;;;3.13;1.30;;;15.20;99.90;;;;;;5137935;28;20047;-75
2022/06/09 07:44:06;;;;;;;3.85;1.73;;;15.30;99.90;;;;;;5138890;28;20494;-74
2022/06/09 07:46:39;;;;;;;1.83;1.50;;;15.40;99.90;;;;;;5139042;28;20061;-75
2022/06/09 07:49:12;;;;;;;1.65;1.45;;;15.50;99.90;;;;;;5140724;28;20049;-74
2022/06/09 07:51:44;;;;;;;2.15;1.52;;;15.50;99.90;;;;;;5140323;28;20057;-74
2022/06/09 07:54:19;;;;;;;2.33;1.45;;;15.60;99.90;;;;;;5140594;28;20053;-74
2022/06/09 07:56:51;;;;;;;4.97;1.73;;;15.50;99.90;;;;;;5138482;28;20055;-74
2022/06/09 07:59:23;;;;;;;2.88;1.30;;;15.50;99.90;;;;;;5138499;28;20426;-74
2022/06/09 08:01:56;;;;;;;2.45;1.83;;;15.60;99.90;;;;;;5140183;28;20034;-74
2022/06/09 08:04:34;;;;;;;2.95;1.55;;;15.70;99.90;;;;;;5137175;28;20088;-75
2022/06/09 08:07:07;;;;;;;3.88;1.70;;;15.80;99.90;;;;;;5140644;28;20424;-75
2022/06/09 08:09:43;;;;;;;3.83;1.80;;;15.70;99.90;;;;;;5136936;28;20065;-75
2022/06/09 08:12:15;;;;;;;5.03;1.33;;;15.60;99.90;;;;;;5143802;28;20493;-75
2022/06/09 08:14:48;;;;;;;2.60;1.45;;;15.40;99.90;;;;;;5141723;28;20069;-73
2022/06/09 08:17:20;;;;;;;3.85;1.63;;;15.00;99.90;;;;;;5143147;28;20084;-73
2022/06/09 08:19:53;;;;;;;2.80;1.73;;;14.70;99.90;;;;;;5142526;28;20057;-73
2022/06/09 08:22:26;;;;;;;4.17;2.53;;;14.60;99.90;;;;;;5138521;28;20058;-75
2022/06/09 08:24:58;;;;;;;5.50;2.67;;;14.30;99.90;;;;;;5137938;28;20046;-74
2022/06/09 08:27:30;;;;;;;6.63;2.80;;;14.20;99.90;;;;;;5138465;28;20062;-75
2022/06/09 08:30:05;;;;;;;6.38;3.42;;;14.00;99.90;;;;;;5138855;28;20043;-74
2022/06/09 08:32:38;;;;;;;7.20;3.75;;;14.00;99.90;;;;;;5138355;28;20055;-74
2022/06/09 08:35:15;;;;;;;6.60;4.00;;;13.90;99.90;;;;;;5136215;28;20476;-74
2022/06/09 08:37:50;;;;;;;8.32;4.10;;;13.90;99.90;;;;;;5132805;28;20054;-75
2022/06/09 08:40:48;;;;;;;10.00;4.22;;;13.80;99.90;;;;;;5133782;28;20073;-75
2022/06/09 08:43:32;;;;;;;6.85;3.83;;;13.80;99.90;;;;;;5119865;28;20427;-73
2022/06/09 08:46:19;;;;;;;6.50;3.70;;;13.70;99.90;;;;;;5132619;28;20064;-73
2022/06/09 08:49:00;;;;;;;12.18;4.68;;;13.80;99.90;;;;;;5133246;28;20058;-75
2022/06/09 08:51:38;;;;;;;9.23;4.43;;;13.80;99.90;;;;;;5133163;28;20699;-75
2022/06/09 08:54:20;;;;;;;7.88;4.22;;;13.80;99.90;;;;;;5132322;28;20043;-74
2022/06/09 08:56:54;;;;;;;7.00;4.47;;;13.90;99.90;;;;;;5134462;28;20047;-73
2022/06/09 08:59:36;;;;;;;8.88;5.47;;;14.00;99.90;;;;;;5128134;28;20296;-72
2022/06/09 09:02:26;;;;;;;7.35;4.85;;;13.90;99.90;;;;;;5134180;28;20097;-75
2022/06/09 09:05:07;;;;;;;8.15;4.55;;;14.10;99.90;;;;;;5137063;28;20054;-74
2022/06/09 09:07:46;;;;;;;8.00;3.67;;;14.10;99.90;;;;;;5134426;28;20415;-75
2022/06/09 09:10:26;;;;;;;8.05;4.22;;;14.10;99.90;;;;;;5145604;28;20055;-77
2022/06/09 09:13:16;;;;;;;11.88;4.70;;;14.20;99.90;;;;;;5134845;28;20536;-75
2022/06/09 09:15:54;;;;;;;10.52;4.22;;;14.10;99.90;;;;;;5134085;28;20066;-77
2022/06/09 09:18:35;;;;;;;8.82;3.95;;;14.20;99.90;;;;;;5140477;28;20581;-77
2022/06/09 09:21:31;;;;;;;7.05;4.03;;;14.20;99.90;;;;;;5133079;28;20436;-75
2022/06/09 09:24:22;;;;;;;8.82;6.03;;;14.30;99.90;;;;;;5131730;28;20475;-75
2022/06/09 09:27:14;;;;;;;7.80;4.35;;;14.50;99.90;;;;;;5140006;28;20049;-78
2022/06/09 09:30:11;;;;;;;7.38;3.97;;;14.50;99.90;;;;;;5106092;28;20059;-76
2022/06/09 09:32:48;;;;;;;8.48;3.83;;;14.60;99.90;;;;;;5132358;28;20046;-76
2022/06/09 09:35:29;;;;;;;12.15;5.25;;;14.70;99.90;;;;;;5134120;28;20046;-76
2022/06/09 09:38:02;;;;;;;8.30;4.03;;;14.80;99.90;;;;;;5132373;28;20051;-76
2022/06/09 09:40:42;;;;;;;7.63;4.10;;;14.80;99.90;;;;;;5136623;28;20057;-76
2022/06/09 09:43:24;;;;;;;9.80;3.70;;;14.80;99.90;;;;;;5136347;28;20046;-76
2022/06/09 09:45:57;;;;;;;7.78;4.68;;;15.00;99.90;;;;;;5133815;28;20070;-78
2022/06/09 09:48:43;;;;;;;10.90;4.20;;;15.00;99.90;;;;;;5142535;28;20139;-76
2022/06/09 09:51:15;;;;;;;9.60;5.00;;;15.10;99.90;;;;;;5138911;28;20047;-76
2022/06/09 09:53:53;;;;;;;12.35;4.30;;;15.10;99.90;;;;;;5136456;28;20414;-76
2022/06/09 09:56:36;;;;;;;9.63;4.45;;;15.10;99.90;;;;;;5145787;28;20546;-78
2022/06/09 09:59:31;;;;;;;8.77;4.30;;;15.20;99.90;;;;;;5135188;28;20050;-75
2022/06/09 10:08:37;;;;;;;16.13;4.30;;;15.60;99.90;;;;;;5141000;28;20502;-78
2022/06/09 10:15:10;;;;;;;9.55;4.07;;;15.60;99.90;;;;;;5133421;28;20042;-75
2022/06/09 10:17:52;;;;;;;9.55;3.90;;;15.60;99.90;;;;;;5134256;28;20073;-76
2022/06/09 10:21:00;;;;;;;6.43;3.92;;;15.80;99.90;;;;;;5135544;28;20046;-76
2022/06/09 10:23:45;;;;;;;12.02;4.15;;;16.00;99.90;;;;;;5140888;28;20581;-80
2022/06/09 10:26:34;;;;;;;6.30;3.60;;;15.90;99.90;;;;;;5134922;28;20043;-79
2022/06/09 10:29:28;;;;;;;7.13;2.72;;;15.70;99.90;;;;;;5145165;28;20047;-75
2022/06/09 10:32:13;;;;;;;4.75;2.42;;;15.30;99.90;;;;;;5131825;28;20042;-76
2022/06/09 10:35:23;;;;;;;5.18;2.55;;;15.10;99.90;;;;;;5134849;28;20049;-76
2022/06/09 10:38:34;;;;;;;9.93;2.83;;;14.90;99.90;;;;;;5134751;28;20490;-75
2022/06/09 10:41:12;;;;;;;8.43;2.88;;;14.80;99.90;;;;;;5141840;28;20613;-76
2022/06/09 10:43:50;;;;;;;6.80;2.70;;;14.80;99.90;;;;;;5145077;28;20047;-76
2022/06/09 10:46:41;;;;;;;5.72;2.63;;;14.70;99.90;;;;;;5146325;28;20325;-76
2022/06/09 10:55:33;;;;;;;7.50;3.30;;;14.60;99.90;;;;;;5134302;28;20412;-77
2022/06/09 10:58:51;;;;;;;7.15;2.90;;;14.50;99.90;;;;;;5143747;28;20042;-76
2022/06/09 11:01:29;;;;;;;5.53;2.45;;;14.40;99.90;;;;;;5188290;28;20058;-75
2022/06/09 11:04:04;;;;;;;6.32;2.60;;;14.40;99.90;;;;;;5187870;28;20492;-76
2022/06/09 11:07:01;;;;;;;10.40;3.40;;;14.30;99.90;;;;;;5140509;28;20046;-76
2022/06/09 11:09:41;;;;;;;6.80;3.15;;;14.30;99.90;;;;;;5135262;28;20434;-76
2022/06/09 11:12:35;;;;;;;7.97;3.60;;;14.30;99.90;;;;;;5136066;28;20073;-75
2022/06/09 11:15:22;;;;;;;9.98;2.58;;;14.50;99.90;;;;;;5133418;28;20043;-76
2022/06/09 11:18:07;;;;;;;8.80;3.08;;;14.60;99.90;;;;;;5128047;28;20051;-78
2022/06/09 11:21:15;;;;;;;8.38;3.63;;;14.70;99.90;;;;;;5133765;28;20403;-75
2022/06/09 11:23:47;;;;;;;6.35;3.13;;;14.50;99.90;;;;;;5146650;28;20065;-75
2022/06/09 11:26:25;;;;;;;7.35;2.97;;;14.60;99.90;;;;;;5133253;28;20411;-76
2022/06/09 11:29:36;;;;;;;6.68;3.55;;;14.70;99.90;;;;;;5135973;28;20379;-76
2022/06/09 11:32:19;;;;;;;7.65;3.92;;;14.90;99.90;;;;;;5133803;28;20745;-77
2022/06/09 11:35:20;;;;;;;6.38;3.15;;;15.00;99.90;;;;;;5141869;28;20054;-76
2022/06/09 11:38:22;;;;;;;6.25;3.13;;;15.20;99.90;;;;;;5133338;28;20077;-75
2022/06/09 11:41:11;;;;;;;8.18;3.88;;;15.30;99.90;;;;;;5133913;28;20046;-76
2022/06/09 11:44:37;;;;;;;5.75;3.08;;;15.40;99.90;;;;;;5143028;28;20053;-75
2022/06/09 11:47:16;;;;;;;6.22;3.03;;;15.70;99.90;;;;;;5155323;28;20542;-75
2022/06/09 11:49:52;;;;;;;4.72;2.88;;;15.80;99.90;;;;;;5133932;28;20321;-77
2022/06/09 11:52:35;;;;;;;12.70;3.88;;;16.10;99.90;;;;;;5133861;28;20479;-75
2022/06/09 11:58:49;;;;;;;3.50;2.72;;;16.30;99.90;;;;;;5145326;28;20902;-78
2022/06/09 12:01:30;;;;;;;6.57;2.60;;;16.10;99.90;;;;;;5133505;28;20058;-76
2022/06/09 12:04:28;;;;;;;4.25;2.33;;;15.80;99.90;;;;;;5133279;28;20042;-76
2022/06/09 12:07:18;;;;;;;9.32;3.20;;;15.50;99.90;;;;;;5133335;28;20047;-77
2022/06/09 12:10:28;;;;;;;19.38;3.28;;;15.10;99.90;;;;;;5134817;28;20426;-80
2022/06/09 12:13:23;;;;;;;15.82;4.47;;;14.70;99.90;;;;;;5134389;28;20042;-76
2022/06/09 12:16:03;;;;;;;13.88;4.60;;;14.10;99.90;;;;;;5137338;28;20499;-78
2022/06/09 12:18:45;;;;;;;7.10;3.90;;;13.80;99.90;;;;;;5133255;28;20062;-80
2022/06/09 12:21:31;;;;;;;11.65;4.13;;;13.50;99.90;;;;;;5132460;28;20063;-76
2022/06/09 12:24:30;;;;;;;9.77;4.85;;;13.30;99.90;;;;;;5132013;28;20558;-77
2022/06/09 12:27:38;;;;;;;8.90;4.10;;;13.20;99.90;;;;;;5133513;28;20055;-78
2022/06/09 12:30:37;;;;;;;9.45;4.82;;;13.10;99.90;;;;;;5131064;28;20634;-77
2022/06/09 12:33:44;;;;;;;9.63;5.40;;;13.20;99.90;;;;;;5130746;28;20519;-78
2022/06/09 12:36:51;;;;;;;10.40;4.97;;;13.20;99.90;;;;;;5140707;28;20058;-77
2022/06/09 12:39:34;;;;;;;9.40;4.47;;;13.30;99.90;;;;;;5133927;28;20514;-76
2022/06/09 12:42:27;;;;;;;6.70;3.20;;;13.40;99.90;;;;;;5123051;28;20050;-78
2022/06/09 12:45:19;;;;;;;4.05;2.38;;;13.40;99.90;;;;;;5131683;28;20049;-76
2022/06/09 12:48:17;;;;;;;3.88;2.90;;;13.30;99.90;;;;;;5133612;28;20427;-77
2022/06/09 12:50:52;;;;;;;10.55;3.28;;;13.30;99.90;;;;;;5134593;28;20051;-78
2022/06/09 12:53:32;;;;;;;4.50;2.25;;;13.30;99.90;;;;;;5133279;28;20059;-77
2022/06/09 12:56:20;;;;;;;6.00;1.92;;;13.40;99.90;;;;;;5132549;28;20062;-77
2022/06/09 12:58:54;;;;;;;3.72;2.28;;;13.60;99.90;;;;;;5133531;28;20058;-77
2022/06/09 13:01:28;;;;;;;;;;;13.60;99.90;;;;;;5133916;28;20667;-77
2022/06/09 13:04:04;;;;;;;3.47;2.60;;;13.90;99.90;;;;;;5132881;28;19926;-77
2022/06/09 13:06:40;;;;;;;4.18;2.28;;;14.20;99.90;;;;;;5133611;28;20047;-77
2022/06/09 13:09:27;;;;;;;5.13;2.80;;;14.50;99.90;;;;;;5126023;28;20418;-77
2022/06/09 13:14:54;;;;;;;6.93;2.20;;;14.70;99.90;;;;;;5133144;28;20042;-76
2022/06/09 13:17:28;;;;;;;3.25;2.42;;;14.90;99.90;;;;;;5136622;28;20050;-77
2022/06/09 13:20:11;;;;;;;3.10;2.08;;;15.20;99.90;;;;;;5135880;28;20058;-76
2022/06/09 13:22:43;;;;;;;3.55;2.20;;;15.40;99.90;;;;;;5136797;28;20058;-76
2022/06/09 13:25:21;;;;;;;2.30;2.08;;;15.70;99.90;;;;;;5135967;28;20054;-76
2022/06/09 13:27:54;;;;;;;4.50;1.70;;;15.80;99.90;;;;;;5136053;28;20512;-76
2022/06/09 13:30:47;;;;;;;2.60;1.88;;;15.80;99.90;;;;;;5137192;28;20383;-76
2022/06/09 13:33:34;;;;;;;6.47;1.80;;;15.70;99.90;;;;;;5142312;28;20313;-76
2022/06/09 13:36:19;;;;;;;3.13;1.75;;;15.80;99.90;;;;;;5145312;28;20059;-76
2022/06/09 13:38:52;;;;;;;3.17;1.80;;;15.70;99.90;;;;;;5137636;28;20059;-77
2022/06/09 13:41:37;;;;;;;4.80;1.77;;;15.70;99.90;;;;;;5135119;28;20475;-76
2022/06/09 13:44:21;;;;;;;2.65;1.58;;;15.70;99.90;;;;;;5145328;28;20050;-76
2022/06/09 13:47:19;;;;;;;2.55;1.50;;;15.50;99.90;;;;;;5137862;28;20061;-76
2022/06/09 13:49:58;;;;;;;1.92;1.48;;;15.60;99.90;;;;;;5136875;28;20426;-76
2022/06/09 13:52:38;;;;;;;3.80;1.83;;;15.70;99.90;;;;;;5137278;28;20049;-77
2022/06/09 13:55:16;;;;;;;5.97;1.60;;;15.90;99.90;;;;;;5139924;28;20054;-77
2022/06/09 13:57:52;;;;;;;4.40;1.40;;;16.00;99.90;;;;;;5136882;28;20458;-77
2022/06/09 14:00:28;;;;;;;1.92;1.20;;;16.00;99.90;;;;;;5135777;28;20054;-77
2022/06/09 14:03:14;;;;;;;2.78;1.10;;;16.00;99.90;;;;;;5135476;28;20050;-77
2022/06/09 14:06:16;;;;;;;1.83;0.98;;;16.30;99.90;;;;;;5136258;28;20047;-76
2022/06/09 14:08:52;;;;;;;2.40;1.00;;;16.20;99.90;;;;;;5137392;28;20047;-76
2022/06/09 14:11:28;;;;;;;1.48;0.85;;;16.20;99.90;;;;;;5136399;28;20050;-76
2022/06/09 14:14:01;;;;;;;3.03;0.90;;;16.20;99.90;;;;;;5136678;28;20491;-77
2022/06/09 14:16:36;;;;;;;2.17;1.02;;;16.30;99.90;;;;;;5134229;28;20062;-76
2022/06/09 14:19:14;;;;;;;5.13;1.08;;;16.50;99.90;;;;;;5146962;28;20046;-77
2022/06/09 14:21:46;;;;;;;1.08;0.98;;;16.60;99.90;;;;;;5124746;28;20057;-76